sensor_id;sensor_type;location;lat;lon;timestamp;temperature;humidity
55091;DHT22;40985;53.180;5.800;2024-02-28T00:00:25;2.60;99.90
55091;DHT22;40985;53.180;5.800;2024-02-28T00:02:51;2.60;99.90
55091;DHT22;40985;53.180;5.800;2024-02-28T00:05:17;2.50;99.90
55091;DHT22;40985;53.180;5.800;2024-02-28T00:07:42;2.50;99.90
55091;DHT22;40985;53.180;5.800;2024-02-28T00:10:08;2.50;99.90
55091;DHT22;40985;53.180;5.800;2024-02-28T00:12:34;2.40;99.90
55091;DHT22;40985;53.180;5.800;2024-02-28T00:15:00;2.30;99.90
55091;DHT22;40985;53.180;5.800;2024-02-28T00:17:26;2.40;99.90
55091;DHT22;40985;53.180;5.800;2024-02-28T00:19:52;2.20;99.90
55091;DHT22;40985;53.180;5.800;2024-02-28T00:22:17;2.20;99.90
55091;DHT22;40985;53.180;5.800;2024-02-28T00:24:43;2.20;99.90
55091;DHT22;40985;53.180;5.800;2024-02-28T00:27:09;2.10;99.90
55091;DHT22;40985;53.180;5.800;2024-02-28T00:29:34;2.10;99.90
55091;DHT22;40985;53.180;5.800;2024-02-28T00:32:00;2.20;99.90
55091;DHT22;40985;53.180;5.800;2024-02-28T00:34:26;2.10;99.90
55091;DHT22;40985;53.180;5.800;2024-02-28T00:36:51;2.10;99.90
55091;DHT22;40985;53.180;5.800;2024-02-28T00:39:17;2.10;99.90
55091;DHT22;40985;53.180;5.800;2024-02-28T00:41:43;2.00;99.90
55091;DHT22;40985;53.180;5.800;2024-02-28T00:44:08;2.10;99.90
55091;DHT22;40985;53.180;5.800;2024-02-28T00:46:34;2.10;99.90
55091;DHT22;40985;53.180;5.800;2024-02-28T00:49:00;2.00;99.90
55091;DHT22;40985;53.180;5.800;2024-02-28T00:51:26;2.10;99.90
55091;DHT22;40985;53.180;5.800;2024-02-28T00:53:51;2.00;99.90
55091;DHT22;40985;53.180;5.800;2024-02-28T00:56:17;2.00;99.90
55091;DHT22;40985;53.180;5.800;2024-02-28T00:58:44;2.10;99.90
55091;DHT22;40985;53.180;5.800;2024-02-28T01:01:10;2.10;99.90
55091;DHT22;40985;53.180;5.800;2024-02-28T01:03:35;2.10;99.90
55091;DHT22;40985;53.180;5.800;2024-02-28T01:06:01;2.30;99.90
55091;DHT22;40985;53.180;5.800;2024-02-28T01:08:29;2.10;99.90
55091;DHT22;40985;53.180;5.800;2024-02-28T01:10:54;2.10;99.90
55091;DHT22;40985;53.180;5.800;2024-02-28T01:13:20;2.30;99.90
55091;DHT22;40985;53.180;5.800;2024-02-28T01:15:46;2.20;99.90
55091;DHT22;40985;53.180;5.800;2024-02-28T01:18:12;2.30;99.90
55091;DHT22;40985;53.180;5.800;2024-02-28T01:20:37;2.20;99.90
55091;DHT22;40985;53.180;5.800;2024-02-28T01:23:03;2.20;99.90
55091;DHT22;40985;53.180;5.800;2024-02-28T01:25:29;2.30;99.90
55091;DHT22;40985;53.180;5.800;2024-02-28T01:27:56;2.30;99.90
55091;DHT22;40985;53.180;5.800;2024-02-28T01:30:23;2.40;99.90
55091;DHT22;40985;53.180;5.800;2024-02-28T01:32:49;2.40;99.90
55091;DHT22;40985;53.180;5.800;2024-02-28T01:35:15;2.30;99.90
55091;DHT22;40985;53.180;5.800;2024-02-28T01:37:40;2.50;99.90
55091;DHT22;40985;53.180;5.800;2024-02-28T01:40:07;2.50;99.90
55091;DHT22;40985;53.180;5.800;2024-02-28T01:42:32;2.40;99.90
55091;DHT22;40985;53.180;5.800;2024-02-28T01:44:58;2.40;99.90
55091;DHT22;40985;53.180;5.800;2024-02-28T01:47:24;2.60;99.90
55091;DHT22;40985;53.180;5.800;2024-02-28T01:49:50;2.60;99.90
55091;DHT22;40985;53.180;5.800;2024-02-28T01:52:17;2.60;99.90
55091;DHT22;40985;53.180;5.800;2024-02-28T01:54:43;2.60;99.90
55091;DHT22;40985;53.180;5.800;2024-02-28T01:57:10;2.60;99.90
55091;DHT22;40985;53.180;5.800;2024-02-28T01:59:36;2.60;99.90
55091;DHT22;40985;53.180;5.800;2024-02-28T02:02:03;2.60;99.90
55091;DHT22;40985;53.180;5.800;2024-02-28T02:04:28;2.70;99.90
55091;DHT22;40985;53.180;5.800;2024-02-28T02:06:54;2.80;99.90
55091;DHT22;40985;53.180;5.800;2024-02-28T02:09:24;2.70;99.90
55091;DHT22;40985;53.180;5.800;2024-02-28T02:11:50;2.70;99.90
55091;DHT22;40985;53.180;5.800;2024-02-28T02:14:16;2.90;99.90
55091;DHT22;40985;53.180;5.800;2024-02-28T02:16:42;2.90;99.90
55091;DHT22;40985;53.180;5.800;2024-02-28T02:19:09;2.90;99.90
55091;DHT22;40985;53.180;5.800;2024-02-28T02:21:50;2.90;99.90
55091;DHT22;40985;53.180;5.800;2024-02-28T02:24:17;3.00;99.90
55091;DHT22;40985;53.180;5.800;2024-02-28T02:26:43;2.90;99.90
55091;DHT22;40985;53.180;5.800;2024-02-28T02:29:12;2.90;99.90
55091;DHT22;40985;53.180;5.800;2024-02-28T02:31:37;3.00;99.90
55091;DHT22;40985;53.180;5.800;2024-02-28T02:34:03;3.10;99.90
55091;DHT22;40985;53.180;5.800;2024-02-28T02:36:29;3.00;99.90
55091;DHT22;40985;53.180;5.800;2024-02-28T02:38:54;3.10;99.90
55091;DHT22;40985;53.180;5.800;2024-02-28T02:41:20;3.20;99.90
55091;DHT22;40985;53.180;5.800;2024-02-28T02:43:46;3.00;99.90
55091;DHT22;40985;53.180;5.800;2024-02-28T02:46:11;3.20;99.90
55091;DHT22;40985;53.180;5.800;2024-02-28T02:48:37;3.20;99.90
55091;DHT22;40985;53.180;5.800;2024-02-28T02:51:03;3.20;99.90
55091;DHT22;40985;53.180;5.800;2024-02-28T02:53:29;3.10;99.90
55091;DHT22;40985;53.180;5.800;2024-02-28T02:55:54;3.10;99.90
55091;DHT22;40985;53.180;5.800;2024-02-28T02:58:20;3.10;99.90
55091;DHT22;40985;53.180;5.800;2024-02-28T03:00:45;3.10;99.90
55091;DHT22;40985;53.180;5.800;2024-02-28T03:03:11;3.20;99.90
55091;DHT22;40985;53.180;5.800;2024-02-28T03:05:37;3.20;99.90
55091;DHT22;40985;53.180;5.800;2024-02-28T03:08:03;3.20;99.90
55091;DHT22;40985;53.180;5.800;2024-02-28T03:10:29;3.20;99.90
55091;DHT22;40985;53.180;5.800;2024-02-28T03:12:55;3.30;99.90
55091;DHT22;40985;53.180;5.800;2024-02-28T03:15:20;3.30;99.90
55091;DHT22;40985;53.180;5.800;2024-02-28T03:17:46;3.30;99.90
55091;DHT22;40985;53.180;5.800;2024-02-28T03:20:12;3.30;99.90
55091;DHT22;40985;53.180;5.800;2024-02-28T03:22:40;3.40;99.90
55091;DHT22;40985;53.180;5.800;2024-02-28T03:25:06;3.40;99.90
55091;DHT22;40985;53.180;5.800;2024-02-28T03:27:32;3.30;99.90
55091;DHT22;40985;53.180;5.800;2024-02-28T03:29:58;3.40;99.90
55091;DHT22;40985;53.180;5.800;2024-02-28T03:32:23;3.60;99.90
55091;DHT22;40985;53.180;5.800;2024-02-28T03:34:49;3.50;99.90
55091;DHT22;40985;53.180;5.800;2024-02-28T03:37:15;3.50;99.90
55091;DHT22;40985;53.180;5.800;2024-02-28T03:39:40;3.50;99.90
55091;DHT22;40985;53.180;5.800;2024-02-28T03:42:06;3.60;99.90
55091;DHT22;40985;53.180;5.800;2024-02-28T03:44:32;3.50;99.90
55091;DHT22;40985;53.180;5.800;2024-02-28T03:46:58;3.60;99.90
55091;DHT22;40985;53.180;5.800;2024-02-28T03:49:23;3.60;99.90
55091;DHT22;40985;53.180;5.800;2024-02-28T03:51:49;3.60;99.90
55091;DHT22;40985;53.180;5.800;2024-02-28T03:54:15;3.80;99.90
55091;DHT22;40985;53.180;5.800;2024-02-28T03:56:40;3.60;99.90
55091;DHT22;40985;53.180;5.800;2024-02-28T03:59:06;3.70;99.90
55091;DHT22;40985;53.180;5.800;2024-02-28T04:01:32;3.70;99.90
55091;DHT22;40985;53.180;5.800;2024-02-28T04:03:57;3.80;99.90
55091;DHT22;40985;53.180;5.800;2024-02-28T04:06:23;3.80;99.90
55091;DHT22;40985;53.180;5.800;2024-02-28T04:08:49;3.80;99.90
55091;DHT22;40985;53.180;5.800;2024-02-28T04:11:15;3.90;99.90
55091;DHT22;40985;53.180;5.800;2024-02-28T04:13:40;3.80;99.90
55091;DHT22;40985;53.180;5.800;2024-02-28T04:16:08;3.90;99.90
55091;DHT22;40985;53.180;5.800;2024-02-28T04:18:34;3.90;99.90
55091;DHT22;40985;53.180;5.800;2024-02-28T04:20:59;3.90;99.90
55091;DHT22;40985;53.180;5.800;2024-02-28T04:23:25;3.80;99.90
55091;DHT22;40985;53.180;5.800;2024-02-28T04:25:50;4.00;99.90
55091;DHT22;40985;53.180;5.800;2024-02-28T04:28:16;3.90;99.90
55091;DHT22;40985;53.180;5.800;2024-02-28T04:30:42;3.90;99.90
55091;DHT22;40985;53.180;5.800;2024-02-28T04:33:08;3.90;99.90
55091;DHT22;40985;53.180;5.800;2024-02-28T04:35:33;3.90;99.90
55091;DHT22;40985;53.180;5.800;2024-02-28T04:37:59;4.00;99.90
55091;DHT22;40985;53.180;5.800;2024-02-28T04:40:25;3.80;99.90
55091;DHT22;40985;53.180;5.800;2024-02-28T04:42:51;4.00;99.90
55091;DHT22;40985;53.180;5.800;2024-02-28T04:45:16;3.90;99.90
55091;DHT22;40985;53.180;5.800;2024-02-28T04:47:42;3.90;99.90
55091;DHT22;40985;53.180;5.800;2024-02-28T04:50:09;3.90;99.90
55091;DHT22;40985;53.180;5.800;2024-02-28T04:52:35;4.00;99.90
55091;DHT22;40985;53.180;5.800;2024-02-28T04:55:01;4.00;99.90
55091;DHT22;40985;53.180;5.800;2024-02-28T04:57:27;3.90;99.90
55091;DHT22;40985;53.180;5.800;2024-02-28T04:59:53;4.00;99.90
55091;DHT22;40985;53.180;5.800;2024-02-28T05:02:19;3.90;99.90
55091;DHT22;40985;53.180;5.800;2024-02-28T05:04:47;4.00;99.90
55091;DHT22;40985;53.180;5.800;2024-02-28T05:07:13;3.90;99.90
55091;DHT22;40985;53.180;5.800;2024-02-28T05:09:38;4.00;99.90
55091;DHT22;40985;53.180;5.800;2024-02-28T05:12:04;3.90;99.90
55091;DHT22;40985;53.180;5.800;2024-02-28T05:14:30;4.00;99.90
55091;DHT22;40985;53.180;5.800;2024-02-28T05:16:56;4.20;99.90
55091;DHT22;40985;53.180;5.800;2024-02-28T05:19:21;4.00;99.90
55091;DHT22;40985;53.180;5.800;2024-02-28T05:21:47;4.10;99.90
55091;DHT22;40985;53.180;5.800;2024-02-28T05:24:14;4.20;99.90
55091;DHT22;40985;53.180;5.800;2024-02-28T05:26:39;4.20;99.90
55091;DHT22;40985;53.180;5.800;2024-02-28T05:29:06;4.10;99.90
55091;DHT22;40985;53.180;5.800;2024-02-28T05:31:32;4.30;99.90
55091;DHT22;40985;53.180;5.800;2024-02-28T05:33:59;4.30;99.90
55091;DHT22;40985;53.180;5.800;2024-02-28T05:36:27;4.30;99.90
55091;DHT22;40985;53.180;5.800;2024-02-28T05:38:53;4.30;99.90
55091;DHT22;40985;53.180;5.800;2024-02-28T05:41:20;4.30;99.90
55091;DHT22;40985;53.180;5.800;2024-02-28T05:43:47;4.20;99.90
55091;DHT22;40985;53.180;5.800;2024-02-28T05:46:13;4.40;99.90
55091;DHT22;40985;53.180;5.800;2024-02-28T05:48:45;4.40;99.90
55091;DHT22;40985;53.180;5.800;2024-02-28T05:51:12;4.30;99.90
55091;DHT22;40985;53.180;5.800;2024-02-28T05:53:38;4.40;99.90
55091;DHT22;40985;53.180;5.800;2024-02-28T05:56:08;4.40;99.90
55091;DHT22;40985;53.180;5.800;2024-02-28T05:58:39;4.40;99.90
55091;DHT22;40985;53.180;5.800;2024-02-28T06:01:05;4.30;99.90
55091;DHT22;40985;53.180;5.800;2024-02-28T06:03:33;4.30;99.90
55091;DHT22;40985;53.180;5.800;2024-02-28T06:05:58;4.50;99.90
55091;DHT22;40985;53.180;5.800;2024-02-28T06:08:24;4.30;99.90
55091;DHT22;40985;53.180;5.800;2024-02-28T06:10:50;4.40;99.90
55091;DHT22;40985;53.180;5.800;2024-02-28T06:13:18;4.50;99.90
55091;DHT22;40985;53.180;5.800;2024-02-28T06:15:43;4.40;99.90
55091;DHT22;40985;53.180;5.800;2024-02-28T06:18:09;4.60;99.90
55091;DHT22;40985;53.180;5.800;2024-02-28T06:20:35;4.40;99.90
55091;DHT22;40985;53.180;5.800;2024-02-28T06:23:01;4.40;99.90
55091;DHT22;40985;53.180;5.800;2024-02-28T06:25:27;4.60;99.90
55091;DHT22;40985;53.180;5.800;2024-02-28T06:27:53;4.50;99.90
55091;DHT22;40985;53.180;5.800;2024-02-28T06:30:19;4.40;99.90
55091;DHT22;40985;53.180;5.800;2024-02-28T06:32:45;4.40;99.90
55091;DHT22;40985;53.180;5.800;2024-02-28T06:35:10;4.60;99.90
55091;DHT22;40985;53.180;5.800;2024-02-28T06:37:36;4.50;99.90
55091;DHT22;40985;53.180;5.800;2024-02-28T06:40:05;4.50;99.90
55091;DHT22;40985;53.180;5.800;2024-02-28T06:42:34;4.40;99.90
55091;DHT22;40985;53.180;5.800;2024-02-28T06:45:02;4.40;99.90
55091;DHT22;40985;53.180;5.800;2024-02-28T06:47:28;4.40;99.90
55091;DHT22;40985;53.180;5.800;2024-02-28T06:49:53;4.40;99.90
55091;DHT22;40985;53.180;5.800;2024-02-28T06:52:19;4.40;99.90
55091;DHT22;40985;53.180;5.800;2024-02-28T06:54:45;4.40;99.90
55091;DHT22;40985;53.180;5.800;2024-02-28T06:57:10;4.50;99.90
55091;DHT22;40985;53.180;5.800;2024-02-28T06:59:37;4.50;99.90
55091;DHT22;40985;53.180;5.800;2024-02-28T07:02:02;4.60;99.90
55091;DHT22;40985;53.180;5.800;2024-02-28T07:04:30;4.40;99.90
55091;DHT22;40985;53.180;5.800;2024-02-28T07:06:55;4.40;99.90
55091;DHT22;40985;53.180;5.800;2024-02-28T07:09:21;4.40;99.90
55091;DHT22;40985;53.180;5.800;2024-02-28T07:11:47;4.50;99.90
55091;DHT22;40985;53.180;5.800;2024-02-28T07:14:12;4.50;99.90
55091;DHT22;40985;53.180;5.800;2024-02-28T07:16:39;4.50;99.90
55091;DHT22;40985;53.180;5.800;2024-02-28T07:19:05;4.70;99.90
55091;DHT22;40985;53.180;5.800;2024-02-28T07:21:30;4.50;99.90
55091;DHT22;40985;53.180;5.800;2024-02-28T07:23:57;4.60;99.90
55091;DHT22;40985;53.180;5.800;2024-02-28T07:26:23;4.50;99.90
55091;DHT22;40985;53.180;5.800;2024-02-28T07:28:49;4.70;99.90
55091;DHT22;40985;53.180;5.800;2024-02-28T07:31:20;4.50;99.90
55091;DHT22;40985;53.180;5.800;2024-02-28T07:33:46;4.50;99.90
55091;DHT22;40985;53.180;5.800;2024-02-28T07:36:12;4.50;99.90
55091;DHT22;40985;53.180;5.800;2024-02-28T07:38:37;4.50;99.90
55091;DHT22;40985;53.180;5.800;2024-02-28T07:41:03;4.50;99.90
55091;DHT22;40985;53.180;5.800;2024-02-28T07:43:30;4.60;99.90
55091;DHT22;40985;53.180;5.800;2024-02-28T07:45:58;4.50;99.90
55091;DHT22;40985;53.180;5.800;2024-02-28T07:48:24;4.60;99.90
55091;DHT22;40985;53.180;5.800;2024-02-28T07:50:50;4.60;99.90
55091;DHT22;40985;53.180;5.800;2024-02-28T07:53:17;4.80;99.90
55091;DHT22;40985;53.180;5.800;2024-02-28T07:55:42;4.90;99.90
55091;DHT22;40985;53.180;5.800;2024-02-28T07:58:08;4.90;99.90
55091;DHT22;40985;53.180;5.800;2024-02-28T08:00:35;4.90;99.90
55091;DHT22;40985;53.180;5.800;2024-02-28T08:03:01;5.20;99.90
55091;DHT22;40985;53.180;5.800;2024-02-28T08:05:27;5.20;99.90
55091;DHT22;40985;53.180;5.800;2024-02-28T08:07:53;5.30;99.90
55091;DHT22;40985;53.180;5.800;2024-02-28T08:10:18;5.20;99.90
55091;DHT22;40985;53.180;5.800;2024-02-28T08:12:44;5.40;99.90
55091;DHT22;40985;53.180;5.800;2024-02-28T08:15:10;5.60;99.90
55091;DHT22;40985;53.180;5.800;2024-02-28T08:17:36;5.50;99.90
55091;DHT22;40985;53.180;5.800;2024-02-28T08:20:05;5.50;99.90
55091;DHT22;40985;53.180;5.800;2024-02-28T08:22:31;5.70;99.90
55091;DHT22;40985;53.180;5.800;2024-02-28T08:24:57;5.60;99.90
55091;DHT22;40985;53.180;5.800;2024-02-28T08:27:23;5.60;99.90
55091;DHT22;40985;53.180;5.800;2024-02-28T08:29:49;5.70;99.90
55091;DHT22;40985;53.180;5.800;2024-02-28T08:32:17;5.70;99.90
55091;DHT22;40985;53.180;5.800;2024-02-28T08:34:45;5.60;99.90
55091;DHT22;40985;53.180;5.800;2024-02-28T08:37:14;5.80;99.90
55091;DHT22;40985;53.180;5.800;2024-02-28T08:39:40;5.70;99.90
55091;DHT22;40985;53.180;5.800;2024-02-28T08:42:06;5.80;99.90
55091;DHT22;40985;53.180;5.800;2024-02-28T08:44:31;5.80;99.90
55091;DHT22;40985;53.180;5.800;2024-02-28T08:46:57;5.70;99.90
55091;DHT22;40985;53.180;5.800;2024-02-28T08:49:23;5.90;99.90
55091;DHT22;40985;53.180;5.800;2024-02-28T08:51:48;5.80;99.90
55091;DHT22;40985;53.180;5.800;2024-02-28T08:54:14;5.80;99.90
55091;DHT22;40985;53.180;5.800;2024-02-28T08:56:40;5.90;99.90
55091;DHT22;40985;53.180;5.800;2024-02-28T08:59:05;6.00;99.90
55091;DHT22;40985;53.180;5.800;2024-02-28T09:01:31;5.90;99.90
55091;DHT22;40985;53.180;5.800;2024-02-28T09:03:59;5.90;99.90
55091;DHT22;40985;53.180;5.800;2024-02-28T09:06:25;5.90;99.90
55091;DHT22;40985;53.180;5.800;2024-02-28T09:08:51;6.00;99.90
55091;DHT22;40985;53.180;5.800;2024-02-28T09:11:16;6.00;99.90
55091;DHT22;40985;53.180;5.800;2024-02-28T09:13:42;5.90;99.90
55091;DHT22;40985;53.180;5.800;2024-02-28T09:16:08;5.90;99.90
55091;DHT22;40985;53.180;5.800;2024-02-28T09:18:34;6.00;99.90
55091;DHT22;40985;53.180;5.800;2024-02-28T09:20:59;6.00;99.90
55091;DHT22;40985;53.180;5.800;2024-02-28T09:23:25;6.00;99.90
55091;DHT22;40985;53.180;5.800;2024-02-28T09:25:50;6.00;99.90
55091;DHT22;40985;53.180;5.800;2024-02-28T09:28:16;6.10;99.90
55091;DHT22;40985;53.180;5.800;2024-02-28T09:30:42;6.20;99.90
55091;DHT22;40985;53.180;5.800;2024-02-28T09:33:08;6.10;99.90
55091;DHT22;40985;53.180;5.800;2024-02-28T09:35:35;6.30;99.90
55091;DHT22;40985;53.180;5.800;2024-02-28T09:38:02;6.20;99.90
55091;DHT22;40985;53.180;5.800;2024-02-28T09:40:28;6.40;99.90
55091;DHT22;40985;53.180;5.800;2024-02-28T09:43:00;6.40;99.90
55091;DHT22;40985;53.180;5.800;2024-02-28T09:45:27;6.40;99.90
55091;DHT22;40985;53.180;5.800;2024-02-28T09:47:56;6.60;99.90
55091;DHT22;40985;53.180;5.800;2024-02-28T09:50:22;6.60;99.90
55091;DHT22;40985;53.180;5.800;2024-02-28T09:52:48;6.70;99.90
55091;DHT22;40985;53.180;5.800;2024-02-28T09:55:14;6.70;99.90
55091;DHT22;40985;53.180;5.800;2024-02-28T09:57:40;6.80;99.90
55091;DHT22;40985;53.180;5.800;2024-02-28T10:00:07;6.80;99.90
55091;DHT22;40985;53.180;5.800;2024-02-28T10:02:35;6.90;99.90
55091;DHT22;40985;53.180;5.800;2024-02-28T10:05:02;6.90;99.90
55091;DHT22;40985;53.180;5.800;2024-02-28T10:07:30;7.00;99.90
55091;DHT22;40985;53.180;5.800;2024-02-28T10:09:56;7.00;99.90
55091;DHT22;40985;53.180;5.800;2024-02-28T10:12:22;7.00;99.90
55091;DHT22;40985;53.180;5.800;2024-02-28T10:14:50;7.10;99.90
55091;DHT22;40985;53.180;5.800;2024-02-28T10:17:16;7.10;99.90
55091;DHT22;40985;53.180;5.800;2024-02-28T10:19:42;7.20;99.90
55091;DHT22;40985;53.180;5.800;2024-02-28T10:22:08;7.30;99.90
55091;DHT22;40985;53.180;5.800;2024-02-28T10:24:34;7.20;99.90
55091;DHT22;40985;53.180;5.800;2024-02-28T10:27:01;7.30;99.90
55091;DHT22;40985;53.180;5.800;2024-02-28T10:29:27;7.40;99.90
55091;DHT22;40985;53.180;5.800;2024-02-28T10:31:56;7.60;99.90
55091;DHT22;40985;53.180;5.800;2024-02-28T10:34:22;7.70;99.90
55091;DHT22;40985;53.180;5.800;2024-02-28T10:36:49;7.70;99.90
55091;DHT22;40985;53.180;5.800;2024-02-28T10:39:15;7.70;99.90
55091;DHT22;40985;53.180;5.800;2024-02-28T10:41:41;7.70;99.90
55091;DHT22;40985;53.180;5.800;2024-02-28T10:44:08;7.70;99.90
55091;DHT22;40985;53.180;5.800;2024-02-28T10:46:37;7.60;99.90
55091;DHT22;40985;53.180;5.800;2024-02-28T10:49:04;7.60;99.90
55091;DHT22;40985;53.180;5.800;2024-02-28T10:51:34;7.60;99.90
55091;DHT22;40985;53.180;5.800;2024-02-28T10:54:10;7.70;99.90
55091;DHT22;40985;53.180;5.800;2024-02-28T10:56:39;7.70;99.90
55091;DHT22;40985;53.180;5.800;2024-02-28T10:59:07;7.60;99.90
55091;DHT22;40985;53.180;5.800;2024-02-28T11:01:35;7.60;99.90
55091;DHT22;40985;53.180;5.800;2024-02-28T11:04:03;7.60;99.90
55091;DHT22;40985;53.180;5.800;2024-02-28T11:06:29;7.60;99.90
55091;DHT22;40985;53.180;5.800;2024-02-28T11:08:55;7.60;99.90
55091;DHT22;40985;53.180;5.800;2024-02-28T11:11:22;7.70;99.90
55091;DHT22;40985;53.180;5.800;2024-02-28T11:13:58;7.70;99.90
55091;DHT22;40985;53.180;5.800;2024-02-28T11:16:32;7.60;99.90
55091;DHT22;40985;53.180;5.800;2024-02-28T11:18:59;7.60;99.90
55091;DHT22;40985;53.180;5.800;2024-02-28T11:21:26;7.60;99.90
55091;DHT22;40985;53.180;5.800;2024-02-28T11:24:01;7.60;99.90
55091;DHT22;40985;53.180;5.800;2024-02-28T11:26:27;7.70;99.90
55091;DHT22;40985;53.180;5.800;2024-02-28T11:28:55;7.80;99.90
55091;DHT22;40985;53.180;5.800;2024-02-28T11:31:21;7.90;99.90
55091;DHT22;40985;53.180;5.800;2024-02-28T11:33:46;7.90;99.90
55091;DHT22;40985;53.180;5.800;2024-02-28T11:36:12;7.90;99.90
55091;DHT22;40985;53.180;5.800;2024-02-28T11:38:41;8.00;99.90
55091;DHT22;40985;53.180;5.800;2024-02-28T11:41:07;8.00;99.90
55091;DHT22;40985;53.180;5.800;2024-02-28T11:43:33;8.00;99.90
55091;DHT22;40985;53.180;5.800;2024-02-28T11:46:08;8.10;99.90
55091;DHT22;40985;53.180;5.800;2024-02-28T11:48:39;8.10;99.90
55091;DHT22;40985;53.180;5.800;2024-02-28T11:51:05;8.00;99.90
55091;DHT22;40985;53.180;5.800;2024-02-28T11:53:31;7.90;99.90
55091;DHT22;40985;53.180;5.800;2024-02-28T11:55:57;7.90;99.90
55091;DHT22;40985;53.180;5.800;2024-02-28T11:58:22;7.90;99.90
55091;DHT22;40985;53.180;5.800;2024-02-28T12:00:52;7.80;99.90
55091;DHT22;40985;53.180;5.800;2024-02-28T12:03:24;7.80;99.90
55091;DHT22;40985;53.180;5.800;2024-02-28T12:05:54;7.90;99.90
55091;DHT22;40985;53.180;5.800;2024-02-28T12:08:20;7.80;99.90
55091;DHT22;40985;53.180;5.800;2024-02-28T12:10:47;7.90;99.90
55091;DHT22;40985;53.180;5.800;2024-02-28T12:13:19;7.90;99.90
55091;DHT22;40985;53.180;5.800;2024-02-28T12:15:46;7.90;99.90
55091;DHT22;40985;53.180;5.800;2024-02-28T12:18:15;7.90;99.90
55091;DHT22;40985;53.180;5.800;2024-02-28T12:20:40;7.90;99.90
55091;DHT22;40985;53.180;5.800;2024-02-28T12:23:06;8.00;99.90
55091;DHT22;40985;53.180;5.800;2024-02-28T12:25:34;8.10;99.90
55091;DHT22;40985;53.180;5.800;2024-02-28T12:28:00;8.10;99.90
55091;DHT22;40985;53.180;5.800;2024-02-28T12:30:27;8.10;99.90
55091;DHT22;40985;53.180;5.800;2024-02-28T12:32:52;8.00;99.90
55091;DHT22;40985;53.180;5.800;2024-02-28T12:35:18;8.00;99.90
55091;DHT22;40985;53.180;5.800;2024-02-28T12:37:44;8.10;99.90
55091;DHT22;40985;53.180;5.800;2024-02-28T12:40:09;8.10;99.90
55091;DHT22;40985;53.180;5.800;2024-02-28T12:42:35;8.10;99.90
55091;DHT22;40985;53.180;5.800;2024-02-28T12:45:02;8.20;99.90
55091;DHT22;40985;53.180;5.800;2024-02-28T12:47:28;8.20;99.90
55091;DHT22;40985;53.180;5.800;2024-02-28T12:49:57;8.20;99.90
55091;DHT22;40985;53.180;5.800;2024-02-28T12:52:22;8.30;99.90
55091;DHT22;40985;53.180;5.800;2024-02-28T12:54:49;8.20;99.90
55091;DHT22;40985;53.180;5.800;2024-02-28T12:57:15;8.10;99.90
55091;DHT22;40985;53.180;5.800;2024-02-28T12:59:42;8.20;99.90
55091;DHT22;40985;53.180;5.800;2024-02-28T13:02:09;8.30;99.90
55091;DHT22;40985;53.180;5.800;2024-02-28T13:04:35;8.40;99.90
55091;DHT22;40985;53.180;5.800;2024-02-28T13:07:01;8.40;99.90
55091;DHT22;40985;53.180;5.800;2024-02-28T13:09:26;8.40;99.90
55091;DHT22;40985;53.180;5.800;2024-02-28T13:11:52;8.50;99.90
55091;DHT22;40985;53.180;5.800;2024-02-28T13:14:18;8.60;99.90
55091;DHT22;40985;53.180;5.800;2024-02-28T13:16:44;8.60;99.90
55091;DHT22;40985;53.180;5.800;2024-02-28T13:19:10;8.60;99.90
55091;DHT22;40985;53.180;5.800;2024-02-28T13:21:36;8.60;99.90
55091;DHT22;40985;53.180;5.800;2024-02-28T13:24:02;8.80;99.90
55091;DHT22;40985;53.180;5.800;2024-02-28T13:26:29;8.90;99.90
55091;DHT22;40985;53.180;5.800;2024-02-28T13:28:55;8.80;99.90
55091;DHT22;40985;53.180;5.800;2024-02-28T13:31:21;8.80;99.90
55091;DHT22;40985;53.180;5.800;2024-02-28T13:33:47;8.80;99.90
55091;DHT22;40985;53.180;5.800;2024-02-28T13:36:16;8.80;99.90
55091;DHT22;40985;53.180;5.800;2024-02-28T13:38:41;8.80;99.90
55091;DHT22;40985;53.180;5.800;2024-02-28T13:41:07;8.80;99.90
55091;DHT22;40985;53.180;5.800;2024-02-28T13:43:33;8.80;99.90
55091;DHT22;40985;53.180;5.800;2024-02-28T13:45:59;8.80;99.90
55091;DHT22;40985;53.180;5.800;2024-02-28T13:48:28;8.80;99.90
55091;DHT22;40985;53.180;5.800;2024-02-28T13:50:57;8.80;99.90
55091;DHT22;40985;53.180;5.800;2024-02-28T13:53:24;8.80;99.90
55091;DHT22;40985;53.180;5.800;2024-02-28T13:55:50;8.70;99.90
55091;DHT22;40985;53.180;5.800;2024-02-28T13:58:16;8.70;99.90
55091;DHT22;40985;53.180;5.800;2024-02-28T14:00:45;8.70;99.90
55091;DHT22;40985;53.180;5.800;2024-02-28T14:03:11;8.70;99.90
55091;DHT22;40985;53.180;5.800;2024-02-28T14:05:37;8.70;99.90
55091;DHT22;40985;53.180;5.800;2024-02-28T14:08:03;8.70;99.90
55091;DHT22;40985;53.180;5.800;2024-02-28T14:10:29;8.70;99.90
55091;DHT22;40985;53.180;5.800;2024-02-28T14:12:56;8.60;99.90
55091;DHT22;40985;53.180;5.800;2024-02-28T14:15:21;8.60;99.90
55091;DHT22;40985;53.180;5.800;2024-02-28T14:17:50;8.60;99.90
55091;DHT22;40985;53.180;5.800;2024-02-28T14:20:17;8.60;99.90
55091;DHT22;40985;53.180;5.800;2024-02-28T14:22:43;8.50;99.90
55091;DHT22;40985;53.180;5.800;2024-02-28T14:25:12;8.50;99.90
55091;DHT22;40985;53.180;5.800;2024-02-28T14:27:43;8.50;99.90
55091;DHT22;40985;53.180;5.800;2024-02-28T14:30:09;8.50;99.90
55091;DHT22;40985;53.180;5.800;2024-02-28T14:32:36;8.50;99.90
55091;DHT22;40985;53.180;5.800;2024-02-28T14:35:06;8.40;99.90
55091;DHT22;40985;53.180;5.800;2024-02-28T14:37:33;8.40;99.90
55091;DHT22;40985;53.180;5.800;2024-02-28T14:40:00;8.40;99.90
55091;DHT22;40985;53.180;5.800;2024-02-28T14:42:39;8.30;99.90
55091;DHT22;40985;53.180;5.800;2024-02-28T14:45:07;8.30;99.90
55091;DHT22;40985;53.180;5.800;2024-02-28T14:47:33;8.30;99.90
55091;DHT22;40985;53.180;5.800;2024-02-28T14:50:04;8.30;99.90
55091;DHT22;40985;53.180;5.800;2024-02-28T14:52:30;8.20;99.90
55091;DHT22;40985;53.180;5.800;2024-02-28T14:54:56;8.20;99.90
55091;DHT22;40985;53.180;5.800;2024-02-28T14:57:21;8.10;99.90
55091;DHT22;40985;53.180;5.800;2024-02-28T14:59:47;8.10;99.90
55091;DHT22;40985;53.180;5.800;2024-02-28T15:02:13;8.10;99.90
55091;DHT22;40985;53.180;5.800;2024-02-28T15:04:39;8.10;99.90
55091;DHT22;40985;53.180;5.800;2024-02-28T15:07:04;8.10;99.90
55091;DHT22;40985;53.180;5.800;2024-02-28T15:09:30;8.20;99.90
55091;DHT22;40985;53.180;5.800;2024-02-28T15:11:56;8.20;99.90
55091;DHT22;40985;53.180;5.800;2024-02-28T15:14:23;8.20;99.90
55091;DHT22;40985;53.180;5.800;2024-02-28T15:16:49;8.20;99.90
55091;DHT22;40985;53.180;5.800;2024-02-28T15:19:15;8.20;99.90
55091;DHT22;40985;53.180;5.800;2024-02-28T15:21:40;8.20;99.90
55091;DHT22;40985;53.180;5.800;2024-02-28T15:24:07;8.20;99.90
55091;DHT22;40985;53.180;5.800;2024-02-28T15:26:32;8.10;99.90
55091;DHT22;40985;53.180;5.800;2024-02-28T15:28:58;8.10;99.90
55091;DHT22;40985;53.180;5.800;2024-02-28T15:31:24;8.10;99.90
55091;DHT22;40985;53.180;5.800;2024-02-28T15:33:50;8.10;99.90
55091;DHT22;40985;53.180;5.800;2024-02-28T15:36:15;8.10;99.90
55091;DHT22;40985;53.180;5.800;2024-02-28T15:38:41;8.10;99.90